Creve Coeur, Missouri
Current Conditions -  °F | °C
As of 4:51 PM on Monday 22 Dec 2014 (Local Time) from KSTL Reporting Station
Light Rain Light Rain  
Wind Chill: 50°   Ceiling: 600
Heat Index: 50°   Visibility: 2mi
Dew Point: 47°   Wind: 8mph
Humidity: 89%   Direction: 150°SSE
Pressure: 29.55"   Gusts: NA
Location:  38.66°N, 90.44°W
Report Text: KSTL 222251Z 15007KT 2SM -RA BR OVC006 10/08 A2955 RMK AO2 SFC VIS 2 1/2 SLP009 P0002 T01000083
Loading
Personal Weather Stations






























Interactive Weather Map New forecast layout! Learn more

10-Day Weather Forecast

Advertisements
Track Severe Weather on mobile